createdAt,value
2019-03-04T00:00:42.602Z,2.17
2019-03-04T00:03:13.105Z,4.12
2019-03-04T00:05:42.748Z,2.67
2019-03-04T00:08:12.297Z,4.78
2019-03-04T00:10:41.657Z,3.45
2019-03-04T00:13:11.315Z,3.42
2019-03-04T00:15:40.782Z,2.35
2019-03-04T00:18:10.319Z,4.03
2019-03-04T00:20:39.908Z,3.62
2019-03-04T00:23:09.365Z,2.98
2019-03-04T00:25:38.827Z,3.00
2019-03-04T00:28:08.383Z,2.20
2019-03-04T00:30:37.654Z,2.58
2019-03-04T00:33:06.888Z,3.47
2019-03-04T00:35:36.239Z,4.53
2019-03-04T00:38:05.749Z,2.37
2019-03-04T00:40:35.425Z,2.08
2019-03-04T00:43:05.148Z,3.95
2019-03-04T00:45:34.452Z,2.62
2019-03-04T00:48:03.709Z,4.53
2019-03-04T00:50:33.060Z,3.72
2019-03-04T00:53:02.560Z,4.67
2019-03-04T00:55:31.874Z,2.98
2019-03-04T00:58:01.149Z,3.55
2019-03-04T01:00:30.486Z,3.98
2019-03-04T01:03:01.180Z,5.47
2019-03-04T01:05:30.920Z,2.70
2019-03-04T01:08:00.379Z,2.87
2019-03-04T01:10:30.514Z,4.85
2019-03-04T01:12:59.775Z,3.65
2019-03-04T01:15:29.855Z,3.92
2019-03-04T01:17:59.055Z,3.10
2019-03-04T01:20:28.689Z,2.30
2019-03-04T01:22:58.244Z,3.77
2019-03-04T01:25:27.703Z,2.87
2019-03-04T01:27:56.951Z,4.35
2019-03-04T01:30:26.140Z,3.67
2019-03-04T01:32:55.409Z,3.17
2019-03-04T01:35:24.971Z,4.10
2019-03-04T01:37:54.442Z,3.70
2019-03-04T01:40:24.174Z,3.87
2019-03-04T01:42:53.599Z,1.50
2019-03-04T01:45:23.890Z,2.95
2019-03-04T01:47:53.263Z,2.08
2019-03-04T01:50:22.706Z,3.20
2019-03-04T01:52:52.261Z,4.72
2019-03-04T01:55:22.904Z,3.17
2019-03-04T01:57:52.455Z,2.67
2019-03-04T02:00:23.265Z,1.82
2019-03-04T02:02:52.746Z,2.05
2019-03-04T02:05:22.309Z,2.35
2019-03-04T02:07:51.766Z,3.12
2019-03-04T02:10:21.320Z,1.42
2019-03-04T02:12:50.606Z,3.77
2019-03-04T02:15:22.967Z,3.00
2019-03-04T02:17:52.432Z,1.37
2019-03-04T02:20:21.721Z,2.20
2019-03-04T02:22:52.256Z,3.02
2019-03-04T02:25:43.141Z,1.52
2019-03-04T02:28:12.408Z,3.22
2019-03-04T02:30:41.668Z,4.97
2019-03-04T02:33:11.173Z,1.60
2019-03-04T02:35:40.397Z,1.52
2019-03-04T02:38:09.959Z,2.27
2019-03-04T02:40:39.406Z,1.15
2019-03-04T02:43:09.992Z,1.10
2019-03-04T02:45:39.277Z,1.25
2019-03-04T02:48:09.835Z,2.55
2019-03-04T02:50:39.317Z,2.40
2019-03-04T02:53:08.826Z,2.92
2019-03-04T02:55:38.553Z,1.60
2019-03-04T02:58:08.211Z,1.55
2019-03-04T03:00:37.916Z,1.32
2019-03-04T03:03:07.246Z,2.10
2019-03-04T03:05:37.762Z,1.27
2019-03-04T03:08:07.060Z,2.20
2019-03-04T03:10:36.362Z,3.77
2019-03-04T03:13:06.093Z,2.10
2019-03-04T03:15:35.604Z,2.47
2019-03-04T03:18:05.071Z,6.97
2019-03-04T06:13:13.672Z,10.35
2019-03-04T06:15:43.222Z,13.75
2019-03-04T06:18:12.699Z,10.63
2019-03-04T06:20:42.018Z,7.15
2019-03-04T06:23:11.210Z,6.80
2019-03-04T06:25:40.845Z,7.87
2019-03-04T06:28:10.148Z,9.70
2019-03-04T06:30:39.592Z,9.80
2019-03-04T06:33:08.926Z,8.23
2019-03-04T06:35:38.191Z,10.80
2019-03-04T06:38:07.733Z,10.68
2019-03-04T06:40:36.959Z,9.30
2019-03-04T06:43:06.515Z,9.48
2019-03-04T06:45:36.022Z,8.60
2019-03-04T06:48:05.667Z,11.50
2019-03-04T06:50:49.714Z,8.93
2019-03-04T06:53:27.787Z,14.38
2019-03-04T06:56:12.030Z,15.72
2019-03-04T06:58:53.627Z,11.20
2019-03-04T07:01:26.250Z,10.95
2019-03-04T07:03:59.317Z,9.40
2019-03-04T07:06:28.987Z,14.33
2019-03-04T07:09:00.764Z,9.80
2019-03-04T07:11:30.059Z,13.95
2019-03-04T07:13:59.294Z,12.78
2019-03-04T07:16:28.642Z,12.95
2019-03-04T07:18:57.954Z,14.10
2019-03-04T07:21:27.593Z,12.93
2019-03-04T07:23:57.162Z,10.80
2019-03-04T07:26:27.483Z,11.35
2019-03-04T07:28:56.998Z,10.00
2019-03-04T07:31:26.386Z,6.97
2019-03-04T07:33:55.770Z,11.22
2019-03-04T07:36:25.487Z,8.75
2019-03-04T07:38:56.393Z,12.50
2019-03-04T07:41:26.496Z,7.37
2019-03-04T07:43:55.967Z,9.85
2019-03-04T07:46:25.554Z,11.83
2019-03-04T07:48:55.018Z,13.78
2019-03-04T07:51:24.511Z,12.00
2019-03-04T07:53:53.972Z,14.68
2019-03-04T07:56:23.710Z,8.83
2019-03-04T07:58:52.979Z,12.37
2019-03-04T08:01:22.321Z,10.40
2019-03-04T08:03:51.601Z,10.28
2019-03-04T08:06:21.126Z,14.20
2019-03-04T08:08:56.466Z,14.65
2019-03-04T08:12:03.231Z,12.73
2019-03-04T08:14:32.577Z,9.28
2019-03-04T08:17:01.842Z,8.95
2019-03-04T08:19:31.032Z,13.98
2019-03-04T08:22:00.501Z,13.00
2019-03-04T08:24:30.220Z,9.40
2019-03-04T08:26:59.694Z,11.75
2019-03-04T08:29:29.010Z,8.55
2019-03-04T08:31:58.518Z,8.68
2019-03-04T08:34:30.961Z,7.23
2019-03-04T08:36:59.169Z,5.00
2019-03-04T08:39:28.490Z,10.55
2019-03-04T08:41:57.929Z,6.80
2019-03-04T08:44:27.232Z,4.78
2019-03-04T08:46:56.550Z,6.40
2019-03-04T08:49:25.824Z,5.62
2019-03-04T08:51:56.185Z,7.97
2019-03-04T08:54:25.422Z,3.33
2019-03-04T08:57:03.719Z,5.95
2019-03-04T08:59:26.327Z,2.30
2019-03-04T09:01:56.237Z,1.82
2019-03-04T09:04:25.545Z,2.20
2019-03-04T09:06:54.862Z,1.25
2019-03-04T09:09:24.100Z,2.05
2019-03-04T09:11:53.466Z,4.00
2019-03-04T09:14:23.338Z,3.60
2019-03-04T09:16:53.083Z,2.40
2019-03-04T09:19:22.777Z,3.08
2019-03-04T09:21:52.257Z,1.62
2019-03-04T09:24:21.563Z,2.55
2019-03-04T09:26:50.918Z,2.55
2019-03-04T09:29:20.392Z,1.17
2019-03-04T09:31:50.075Z,2.47
2019-03-04T09:34:19.579Z,1.20
2019-03-04T09:36:48.907Z,3.22
2019-03-04T09:39:18.191Z,1.17
2019-03-04T09:41:48.110Z,4.90
2019-03-04T09:44:17.620Z,2.05
2019-03-04T09:46:47.290Z,2.08
2019-03-04T09:49:16.629Z,2.27
2019-03-04T09:51:47.138Z,3.87
2019-03-04T09:54:16.616Z,5.30
2019-03-04T09:56:46.209Z,14.28
2019-03-04T09:59:15.682Z,11.50
2019-03-04T10:01:49.275Z,8.70
2019-03-04T10:04:40.377Z,12.18
2019-03-04T10:07:21.732Z,14.93
2019-03-04T10:10:15.962Z,18.20
2019-03-04T10:12:57.326Z,12.88
2019-03-04T10:15:35.518Z,10.68
2019-03-04T10:18:13.909Z,8.53
2019-03-04T10:21:01.909Z,8.38
2019-03-04T10:23:43.320Z,7.22
2019-03-04T10:26:48.709Z,6.33
2019-03-04T10:29:21.230Z,6.28
2019-03-04T10:32:09.083Z,6.80
2019-03-04T10:34:56.452Z,18.37
2019-03-04T10:37:41.118Z,12.25
2019-03-04T10:40:15.612Z,9.90
2019-03-04T10:43:21.220Z,10.78
2019-03-04T10:46:27.045Z,9.88
2019-03-04T10:51:24.988Z,7.50
2019-03-04T10:53:54.465Z,9.68
2019-03-04T10:56:24.206Z,8.63
2019-03-04T10:58:53.654Z,11.70
2019-03-04T11:01:30.384Z,8.70
2019-03-04T11:03:55.123Z,9.10
2019-03-04T11:06:24.466Z,10.05
2019-03-04T11:08:55.372Z,6.65
2019-03-04T11:11:29.753Z,13.85
2019-03-04T11:13:55.855Z,8.80
2019-03-04T11:16:25.321Z,8.95
2019-03-04T11:18:54.831Z,12.95
2019-03-04T11:21:24.588Z,11.33
2019-03-04T11:23:53.919Z,9.18
2019-03-04T11:26:23.415Z,10.95
2019-03-04T11:28:52.752Z,8.43
2019-03-04T11:31:22.303Z,12.45
2019-03-04T11:33:51.861Z,11.25
2019-03-04T11:36:21.312Z,9.65
2019-03-04T11:38:55.823Z,8.25
2019-03-04T11:41:26.502Z,13.60
2019-03-04T11:43:55.677Z,7.87
2019-03-04T11:46:25.742Z,8.05
2019-03-04T11:48:55.176Z,10.15
2019-03-04T11:51:24.736Z,6.70
2019-03-04T11:53:54.817Z,9.13
2019-03-04T11:56:24.360Z,9.38
2019-03-04T11:58:53.858Z,10.23
2019-03-04T12:01:37.067Z,15.20
2019-03-04T12:04:06.277Z,17.80
2019-03-04T12:06:36.509Z,9.03
2019-03-04T12:09:09.438Z,7.65
2019-03-04T12:11:39.006Z,6.95
2019-03-04T12:14:09.513Z,10.58
2019-03-04T12:16:38.783Z,12.07
2019-03-04T12:19:09.036Z,7.87
2019-03-04T12:21:39.644Z,10.28
2019-03-04T12:24:08.991Z,6.00
2019-03-04T12:26:38.456Z,8.63
2019-03-04T12:29:08.137Z,8.55
2019-03-04T12:31:39.346Z,7.10
2019-03-04T12:34:09.056Z,9.08
2019-03-04T12:36:38.304Z,8.95
2019-03-04T12:39:08.664Z,8.75
2019-03-04T12:41:37.851Z,13.75
2019-03-04T12:44:07.411Z,9.58
2019-03-04T12:46:36.962Z,8.38
2019-03-04T12:49:06.406Z,7.85
2019-03-04T12:51:35.765Z,6.72
2019-03-04T12:54:05.410Z,6.75
2019-03-04T12:56:34.953Z,8.75
2019-03-04T12:59:04.198Z,7.17
2019-03-04T13:01:34.359Z,6.42
2019-03-04T13:04:04.541Z,10.45
2019-03-04T13:06:33.795Z,5.67
2019-03-04T13:09:13.850Z,7.92
2019-03-04T13:11:35.832Z,9.50
2019-03-04T13:14:05.169Z,3.85
2019-03-04T13:16:34.455Z,9.60
2019-03-04T13:19:04.135Z,13.28
2019-03-04T13:21:33.456Z,6.37
2019-03-04T13:24:03.095Z,6.30
2019-03-04T13:26:32.453Z,7.58
2019-03-04T13:29:01.710Z,7.85
2019-03-04T13:31:30.945Z,6.85
2019-03-04T13:34:01.332Z,6.15
2019-03-04T13:36:30.878Z,7.90
2019-03-04T13:39:00.326Z,4.10
2019-03-04T13:41:29.682Z,5.97
2019-03-04T13:43:59.124Z,8.05
2019-03-04T13:46:28.684Z,10.60
2019-03-04T13:48:58.136Z,6.15
2019-03-04T13:51:27.495Z,11.30
2019-03-04T13:53:57.165Z,8.58
2019-03-04T13:56:27.538Z,8.95
2019-03-04T13:58:56.978Z,7.83
2019-03-04T14:01:26.535Z,7.60
2019-03-04T14:03:55.803Z,7.15
2019-03-04T14:06:25.726Z,6.67
2019-03-04T14:08:55.060Z,9.10
2019-03-04T14:11:24.578Z,9.25
2019-03-04T14:13:54.231Z,7.42
2019-03-04T14:16:24.172Z,9.70
2019-03-04T14:18:53.447Z,6.62
2019-03-04T14:21:22.784Z,8.10
2019-03-04T14:23:52.267Z,5.20
2019-03-04T14:26:22.419Z,7.58
2019-03-04T14:28:51.885Z,3.58
2019-03-04T14:31:21.151Z,6.75
2019-03-04T14:33:51.528Z,8.53
2019-03-04T14:36:20.789Z,3.37
2019-03-04T14:38:50.303Z,4.78
2019-03-04T14:41:19.496Z,2.95
2019-03-04T14:43:48.838Z,4.15
2019-03-04T14:46:21.324Z,7.28
2019-03-04T14:48:50.763Z,5.58
2019-03-04T14:51:20.009Z,6.45
2019-03-04T14:53:49.564Z,7.47
2019-03-04T14:56:22.448Z,4.92
2019-03-04T14:58:56.081Z,6.28
2019-03-04T15:01:20.948Z,5.87
2019-03-04T15:03:50.883Z,4.00
2019-03-04T15:06:20.142Z,4.12
2019-03-04T15:08:49.455Z,2.70
2019-03-04T15:11:18.711Z,7.37
2019-03-04T15:13:48.077Z,3.37
2019-03-04T15:16:17.561Z,4.08
2019-03-04T15:18:47.299Z,6.42
2019-03-04T15:21:16.745Z,4.05
2019-03-04T15:23:46.474Z,7.83
2019-03-04T15:26:15.738Z,9.05
2019-03-04T15:28:45.317Z,6.37
2019-03-04T15:31:14.565Z,4.90
2019-03-04T15:33:43.866Z,9.95
2019-03-04T15:36:14.391Z,8.45
2019-03-04T15:38:43.923Z,6.25
2019-03-04T15:41:13.176Z,7.45
2019-03-04T15:43:42.444Z,8.03
2019-03-04T15:46:11.620Z,9.23
2019-03-04T15:48:41.114Z,7.65
2019-03-04T15:51:10.397Z,6.70
2019-03-04T15:53:39.987Z,8.23
2019-03-04T15:56:09.267Z,6.67
2019-03-04T15:58:38.712Z,9.50
2019-03-04T16:01:09.634Z,9.15
2019-03-04T16:03:38.900Z,14.55
2019-03-04T16:06:08.446Z,10.30
2019-03-04T16:08:38.028Z,7.45
2019-03-04T16:11:07.411Z,10.05
2019-03-04T16:13:36.980Z,9.65
2019-03-04T16:16:06.442Z,9.83
2019-03-04T16:18:36.727Z,10.00
2019-03-04T16:21:06.306Z,9.23
2019-03-04T16:23:35.834Z,9.20
2019-03-04T16:26:08.791Z,6.95
2019-03-04T16:28:38.233Z,10.95
2019-03-04T16:31:07.438Z,11.40
2019-03-04T16:33:36.716Z,10.08
2019-03-04T16:36:06.154Z,7.15
2019-03-04T16:38:35.679Z,10.43
2019-03-04T16:41:05.125Z,8.10
2019-03-04T16:43:34.697Z,8.95
2019-03-04T16:46:03.875Z,7.92
2019-03-04T16:48:33.410Z,8.60
2019-03-04T16:51:03.041Z,12.35
2019-03-04T16:53:34.527Z,9.88
2019-03-04T16:56:04.083Z,11.93
2019-03-04T16:58:33.556Z,10.20
2019-03-04T17:01:03.249Z,10.55
2019-03-04T17:03:33.515Z,15.65
2019-03-04T17:06:02.758Z,13.68
2019-03-04T17:08:32.032Z,9.78
2019-03-04T17:11:01.476Z,9.40
2019-03-04T17:13:31.211Z,12.40
2019-03-04T17:16:00.700Z,11.93
2019-03-04T17:18:30.238Z,7.20
2019-03-04T17:20:59.491Z,12.68
2019-03-04T17:23:28.756Z,6.97
2019-03-04T17:25:59.091Z,11.75
2019-03-04T17:28:28.470Z,8.98
2019-03-04T17:30:57.913Z,8.38
2019-03-04T17:33:28.446Z,11.25
2019-03-04T17:35:57.731Z,16.02
2019-03-04T17:38:26.985Z,12.03
2019-03-04T17:40:56.185Z,10.05
2019-03-04T17:43:25.923Z,9.98
2019-03-04T17:45:55.189Z,8.00
2019-03-04T17:48:24.653Z,10.50
2019-03-04T17:50:54.095Z,8.08
2019-03-04T17:53:23.865Z,7.35
2019-03-04T17:55:53.167Z,7.72
2019-03-04T17:58:22.634Z,5.30
2019-03-04T18:00:53.523Z,9.25
2019-03-04T18:03:23.063Z,9.90
2019-03-04T18:05:53.802Z,13.58
2019-03-04T18:08:23.075Z,12.05
2019-03-04T18:10:52.247Z,12.85
2019-03-04T18:13:22.122Z,12.75
2019-03-04T18:15:51.322Z,10.98
2019-03-04T18:18:22.054Z,4.75
2019-03-04T18:20:51.424Z,7.85
2019-03-04T18:23:20.988Z,6.25
2019-03-04T18:26:05.503Z,4.75
2019-03-04T18:28:44.118Z,7.53
2019-03-04T18:31:23.184Z,4.58
2019-03-04T18:34:04.683Z,5.37
2019-03-04T18:36:52.357Z,10.88
2019-03-04T18:39:30.929Z,8.53
2019-03-04T18:42:12.502Z,5.20
2019-03-04T18:44:54.460Z,4.15
2019-03-04T18:47:47.878Z,5.30
2019-03-04T18:50:17.129Z,4.72
2019-03-04T18:52:47.859Z,3.83
2019-03-04T18:55:17.875Z,9.43
2019-03-04T18:58:06.582Z,4.85
2019-03-04T19:00:35.896Z,6.03
2019-03-04T19:03:05.155Z,5.12
2019-03-04T19:05:34.759Z,7.95
2019-03-04T19:08:04.023Z,4.87
2019-03-04T19:10:33.316Z,8.15
2019-03-04T19:13:03.445Z,4.10
2019-03-04T19:15:33.755Z,6.40
2019-03-04T19:18:03.023Z,4.25
2019-03-04T19:20:32.383Z,4.78
2019-03-04T19:23:01.657Z,7.08
2019-03-04T19:25:31.377Z,5.72
2019-03-04T19:28:00.858Z,6.62
2019-03-04T19:30:30.560Z,6.37
2019-03-04T19:33:00.075Z,7.12
2019-03-04T19:35:30.632Z,8.05
2019-03-04T19:37:59.875Z,12.35
2019-03-04T19:40:29.272Z,8.48
2019-03-04T19:43:00.135Z,4.80
2019-03-04T19:45:29.641Z,14.10
2019-03-04T19:47:59.325Z,9.88
2019-03-04T19:50:28.599Z,7.30
2019-03-04T19:52:58.138Z,6.85
2019-03-04T19:55:27.474Z,10.15
2019-03-04T19:57:57.019Z,10.10
2019-03-04T20:00:30.151Z,8.83
2019-03-04T20:02:59.666Z,10.00
2019-03-04T20:05:31.213Z,12.95
2019-03-04T20:08:01.124Z,10.75
2019-03-04T20:10:31.287Z,10.80
2019-03-04T20:13:00.741Z,15.05
2019-03-04T20:15:31.951Z,12.58
2019-03-04T20:18:01.400Z,14.35
2019-03-04T20:20:31.048Z,15.58
2019-03-04T20:23:01.398Z,15.08
2019-03-04T20:25:31.126Z,16.12
2019-03-04T20:28:00.854Z,15.35
2019-03-04T20:30:30.729Z,10.98
2019-03-04T20:33:00.452Z,16.27
2019-03-04T20:35:29.925Z,14.07
2019-03-04T20:38:02.519Z,17.25
2019-03-04T20:40:32.317Z,17.02
2019-03-04T20:43:02.370Z,18.70
2019-03-04T20:45:33.290Z,19.40
2019-03-04T20:48:02.870Z,21.42
2019-03-04T20:50:32.125Z,10.90
2019-03-04T20:53:01.755Z,13.25
2019-03-04T20:55:31.138Z,17.37
2019-03-04T20:58:00.799Z,18.62
2019-03-04T21:00:33.501Z,14.05
2019-03-04T21:03:04.571Z,16.52
2019-03-04T21:05:35.399Z,14.55
2019-03-04T21:08:05.829Z,18.47
2019-03-04T21:10:35.725Z,21.85
2019-03-04T21:13:07.321Z,13.28
2019-03-04T21:15:36.836Z,19.40
2019-03-04T21:18:06.334Z,14.70
2019-03-04T21:20:35.962Z,20.72
2019-03-04T21:23:05.268Z,20.02
2019-03-04T21:25:56.044Z,16.60
2019-03-04T21:29:02.272Z,22.67
2019-03-04T21:31:37.761Z,13.70
2019-03-04T21:34:11.266Z,24.57
2019-03-04T21:36:53.246Z,12.60
2019-03-04T21:39:30.137Z,24.57
2019-03-04T21:42:05.640Z,23.32
2019-03-04T21:44:49.666Z,18.35
2019-03-04T21:47:34.717Z,16.80
2019-03-04T21:50:06.832Z,18.17
2019-03-04T21:52:42.895Z,20.08
2019-03-04T21:55:22.844Z,12.40
2019-03-04T21:57:52.736Z,16.97
2019-03-04T22:00:26.370Z,17.30
2019-03-04T22:03:02.117Z,14.03
2019-03-04T22:05:31.984Z,22.27
2019-03-04T22:08:01.451Z,15.25
2019-03-04T22:10:30.952Z,18.12
2019-03-04T22:13:00.660Z,18.92
2019-03-04T22:15:30.246Z,16.93
2019-03-04T22:17:59.802Z,19.05
2019-03-04T22:20:29.064Z,20.37
2019-03-04T22:22:58.255Z,14.25
2019-03-04T22:25:27.444Z,14.07
2019-03-04T22:27:56.840Z,14.50
2019-03-04T22:30:26.353Z,11.15
2019-03-04T22:32:55.875Z,15.30
2019-03-04T22:35:25.330Z,20.37
2019-03-04T22:37:55.305Z,21.52
2019-03-04T22:40:46.882Z,20.30
2019-03-04T22:43:16.138Z,24.43
2019-03-04T22:45:45.703Z,22.37
2019-03-04T22:48:15.039Z,24.20
2019-03-04T22:50:44.647Z,26.25
2019-03-04T22:53:14.594Z,32.05
2019-03-04T22:55:45.729Z,22.40
2019-03-04T22:58:15.267Z,25.25
2019-03-04T23:00:55.215Z,33.45
2019-03-04T23:03:33.973Z,29.25
2019-03-04T23:06:15.389Z,20.75
2019-03-04T23:08:44.861Z,14.93
2019-03-04T23:11:14.368Z,22.70
2019-03-04T23:13:55.969Z,22.55
2019-03-04T23:16:27.758Z,22.58
2019-03-04T23:18:56.933Z,17.35
2019-03-04T23:21:26.471Z,17.45
2019-03-04T23:23:55.928Z,15.32
2019-03-04T23:26:25.483Z,15.35
2019-03-04T23:28:54.946Z,20.95
2019-03-04T23:31:24.465Z,15.72
2019-03-04T23:33:53.811Z,16.40
2019-03-04T23:36:23.673Z,16.65
2019-03-04T23:38:53.122Z,13.13
2019-03-04T23:41:22.745Z,10.90
2019-03-04T23:43:52.596Z,8.68
2019-03-04T23:46:22.328Z,11.85
2019-03-04T23:48:51.794Z,10.75
2019-03-04T23:51:21.318Z,12.95
2019-03-04T23:53:50.827Z,12.53
2019-03-04T23:56:20.037Z,8.03
2019-03-04T23:58:49.620Z,13.83
